sensor_id;sensor_type;location;lat;lon;timestamp;pressure;altitude;pressure_sealevel;temperature;humidity
67373;BME280;54257;54.496;18.412;2022-07-24T00:02:05;99790.14;;;14.86;80.35
67373;BME280;54257;54.496;18.412;2022-07-24T00:04:32;99789.48;;;14.83;81.30
67373;BME280;54257;54.496;18.412;2022-07-24T00:07:00;99788.27;;;14.82;80.69
67373;BME280;54257;54.496;18.412;2022-07-24T00:09:27;99786.04;;;14.83;80.43
67373;BME280;54257;54.496;18.412;2022-07-24T00:11:54;99781.23;;;14.82;82.39
67373;BME280;54257;54.496;18.412;2022-07-24T00:14:21;99782.27;;;14.78;82.74
67373;BME280;54257;54.496;18.412;2022-07-24T00:16:48;99776.78;;;14.74;82.72
67373;BME280;54257;54.496;18.412;2022-07-24T00:19:15;99774.70;;;14.73;82.71
67373;BME280;54257;54.496;18.412;2022-07-24T00:21:43;99771.27;;;14.73;83.09
67373;BME280;54257;54.496;18.412;2022-07-24T00:24:10;99768.02;;;14.72;83.97
67373;BME280;54257;54.496;18.412;2022-07-24T00:26:37;99767.15;;;14.71;83.84
67373;BME280;54257;54.496;18.412;2022-07-24T00:29:04;99765.43;;;14.70;83.90
67373;BME280;54257;54.496;18.412;2022-07-24T00:31:31;99766.46;;;14.70;83.75
67373;BME280;54257;54.496;18.412;2022-07-24T00:34:04;99766.45;;;14.73;83.78
67373;BME280;54257;54.496;18.412;2022-07-24T00:36:32;99763.02;;;14.71;85.05
67373;BME280;54257;54.496;18.412;2022-07-24T00:39:02;99763.55;;;14.71;84.36
67373;BME280;54257;54.496;18.412;2022-07-24T00:41:32;99768.72;;;14.69;85.73
67373;BME280;54257;54.496;18.412;2022-07-24T00:44:14;99764.94;;;14.68;85.40
67373;BME280;54257;54.496;18.412;2022-07-24T00:46:44;99766.64;;;14.71;84.87
67373;BME280;54257;54.496;18.412;2022-07-24T00:49:13;99766.97;;;14.74;84.96
67373;BME280;54257;54.496;18.412;2022-07-24T00:51:43;99770.58;;;14.77;84.92
67373;BME280;54257;54.496;18.412;2022-07-24T00:54:11;99766.25;;;14.80;84.73
67373;BME280;54257;54.496;18.412;2022-07-24T00:56:41;99770.39;;;14.84;84.81
67373;BME280;54257;54.496;18.412;2022-07-24T00:59:09;99769.34;;;14.85;84.95
67373;BME280;54257;54.496;18.412;2022-07-24T01:01:39;99770.52;;;14.88;84.32
67373;BME280;54257;54.496;18.412;2022-07-24T01:04:07;99772.06;;;14.92;84.18
67373;BME280;54257;54.496;18.412;2022-07-24T01:06:35;99766.03;;;14.95;84.66
67373;BME280;54257;54.496;18.412;2022-07-24T01:09:02;99770.83;;;14.97;84.25
67373;BME280;54257;54.496;18.412;2022-07-24T01:11:30;99766.17;;;14.99;84.54
67373;BME280;54257;54.496;18.412;2022-07-24T01:13:57;99762.41;;;15.00;84.42
67373;BME280;54257;54.496;18.412;2022-07-24T01:16:25;99761.55;;;15.00;85.14
67373;BME280;54257;54.496;18.412;2022-07-24T01:18:52;99761.89;;;15.00;85.45
67373;BME280;54257;54.496;18.412;2022-07-24T01:21:18;99760.86;;;14.99;85.25
67373;BME280;54257;54.496;18.412;2022-07-24T01:23:46;99764.82;;;15.00;85.06
67373;BME280;54257;54.496;18.412;2022-07-24T01:26:13;99763.26;;;15.00;85.45
67373;BME280;54257;54.496;18.412;2022-07-24T01:28:43;99762.75;;;15.00;85.81
67373;BME280;54257;54.496;18.412;2022-07-24T01:31:10;99764.98;;;15.01;85.64
67373;BME280;54257;54.496;18.412;2022-07-24T01:33:40;99757.40;;;15.01;85.79
67373;BME280;54257;54.496;18.412;2022-07-24T01:36:08;99758.27;;;15.02;85.98
67373;BME280;54257;54.496;18.412;2022-07-24T01:38:35;99759.30;;;15.01;86.35
67373;BME280;54257;54.496;18.412;2022-07-24T01:41:03;99753.45;;;15.01;85.97
67373;BME280;54257;54.496;18.412;2022-07-24T01:43:31;99755.50;;;15.03;85.78
67373;BME280;54257;54.496;18.412;2022-07-24T01:45:58;99749.30;;;15.06;85.47
67373;BME280;54257;54.496;18.412;2022-07-24T01:48:25;99749.64;;;15.08;85.62
67373;BME280;54257;54.496;18.412;2022-07-24T01:50:52;99750.63;;;15.11;85.45
67373;BME280;54257;54.496;18.412;2022-07-24T01:53:19;99750.98;;;15.12;85.77
67373;BME280;54257;54.496;18.412;2022-07-24T01:55:49;99749.94;;;15.12;85.77
67373;BME280;54257;54.496;18.412;2022-07-24T01:58:18;99754.08;;;15.12;86.15
67373;BME280;54257;54.496;18.412;2022-07-24T02:00:45;99754.60;;;15.11;86.17
67373;BME280;54257;54.496;18.412;2022-07-24T02:03:13;99758.02;;;15.13;86.17
67373;BME280;54257;54.496;18.412;2022-07-24T02:05:40;99759.41;;;15.15;86.06
67373;BME280;54257;54.496;18.412;2022-07-24T02:08:07;99759.73;;;15.17;85.94
67373;BME280;54257;54.496;18.412;2022-07-24T02:10:35;99757.48;;;15.19;86.17
67373;BME280;54257;54.496;18.412;2022-07-24T02:13:02;99762.46;;;15.20;86.10
67373;BME280;54257;54.496;18.412;2022-07-24T02:15:31;99764.34;;;15.22;85.76
67373;BME280;54257;54.496;18.412;2022-07-24T02:18:00;99765.55;;;15.24;85.90
67373;BME280;54257;54.496;18.412;2022-07-24T02:20:28;99765.36;;;15.25;85.82
67373;BME280;54257;54.496;18.412;2022-07-24T02:22:55;99767.24;;;15.27;85.61
67373;BME280;54257;54.496;18.412;2022-07-24T02:25:22;99762.74;;;15.29;85.73
67373;BME280;54257;54.496;18.412;2022-07-24T02:27:50;99764.46;;;15.31;85.96
67373;BME280;54257;54.496;18.412;2022-07-24T02:30:22;99769.48;;;15.31;86.32
67373;BME280;54257;54.496;18.412;2022-07-24T02:32:50;99768.77;;;15.33;86.01
67373;BME280;54257;54.496;18.412;2022-07-24T02:35:20;99767.20;;;15.34;85.83
67373;BME280;54257;54.496;18.412;2022-07-24T02:37:48;99765.64;;;15.36;86.10
67373;BME280;54257;54.496;18.412;2022-07-24T02:40:15;99768.55;;;15.38;86.20
67373;BME280;54257;54.496;18.412;2022-07-24T02:42:42;99772.69;;;15.40;86.08
67373;BME280;54257;54.496;18.412;2022-07-24T02:45:10;99770.26;;;15.42;86.47
67373;BME280;54257;54.496;18.412;2022-07-24T02:47:47;99773.52;;;15.43;86.61
67373;BME280;54257;54.496;18.412;2022-07-24T02:50:15;99775.74;;;15.45;86.95
67373;BME280;54257;54.496;18.412;2022-07-24T02:52:43;99776.25;;;15.46;86.83
67373;BME280;54257;54.496;18.412;2022-07-24T02:55:11;99776.24;;;15.47;87.14
67373;BME280;54257;54.496;18.412;2022-07-24T02:57:38;99779.17;;;15.47;87.31
67373;BME280;54257;54.496;18.412;2022-07-24T03:00:08;99787.27;;;15.49;87.11
67373;BME280;54257;54.496;18.412;2022-07-24T03:02:35;99790.51;;;15.51;87.04
67373;BME280;54257;54.496;18.412;2022-07-24T03:05:04;99793.75;;;15.54;87.57
67373;BME280;54257;54.496;18.412;2022-07-24T03:07:32;99796.17;;;15.55;87.11
67373;BME280;54257;54.496;18.412;2022-07-24T03:09:59;99798.05;;;15.58;87.30
67373;BME280;54257;54.496;18.412;2022-07-24T03:12:26;99796.84;;;15.60;87.48
67373;BME280;54257;54.496;18.412;2022-07-24T03:14:57;99803.02;;;15.62;87.30
67373;BME280;54257;54.496;18.412;2022-07-24T03:17:24;99805.10;;;15.65;87.65
67373;BME280;54257;54.496;18.412;2022-07-24T03:19:51;99804.90;;;15.67;87.46
67373;BME280;54257;54.496;18.412;2022-07-24T03:22:18;99802.98;;;15.71;87.56
67373;BME280;54257;54.496;18.412;2022-07-24T03:24:46;99803.66;;;15.74;87.97
67373;BME280;54257;54.496;18.412;2022-07-24T03:27:13;99806.39;;;15.76;88.20
67373;BME280;54257;54.496;18.412;2022-07-24T03:29:40;99809.29;;;15.79;88.04
67373;BME280;54257;54.496;18.412;2022-07-24T03:32:07;99809.46;;;15.81;87.78
67373;BME280;54257;54.496;18.412;2022-07-24T03:34:34;99808.38;;;15.86;87.75
67373;BME280;54257;54.496;18.412;2022-07-24T03:37:04;99810.95;;;15.89;88.28
67373;BME280;54257;54.496;18.412;2022-07-24T03:39:34;99807.66;;;15.91;87.97
67373;BME280;54257;54.496;18.412;2022-07-24T03:42:01;99805.40;;;15.93;87.87
67373;BME280;54257;54.496;18.412;2022-07-24T03:44:31;99808.48;;;15.95;88.24
67373;BME280;54257;54.496;18.412;2022-07-24T03:46:59;99806.76;;;15.94;88.68
67373;BME280;54257;54.496;18.412;2022-07-24T03:49:26;99808.14;;;15.95;88.54
67373;BME280;54257;54.496;18.412;2022-07-24T03:51:53;99810.89;;;15.95;88.44
67373;BME280;54257;54.496;18.412;2022-07-24T03:54:20;99819.33;;;15.97;88.26
67373;BME280;54257;54.496;18.412;2022-07-24T03:56:49;99817.44;;;15.98;88.41
67373;BME280;54257;54.496;18.412;2022-07-24T03:59:17;99819.14;;;16.01;88.11
67373;BME280;54257;54.496;18.412;2022-07-24T04:01:44;99814.45;;;16.02;88.04
67373;BME280;54257;54.496;18.412;2022-07-24T04:04:11;99816.52;;;16.04;88.10
67373;BME280;54257;54.496;18.412;2022-07-24T04:06:39;99813.23;;;16.06;88.08
67373;BME280;54257;54.496;18.412;2022-07-24T04:09:08;99816.35;;;16.06;88.69
67373;BME280;54257;54.496;18.412;2022-07-24T04:11:35;99816.52;;;16.05;88.44
67373;BME280;54257;54.496;18.412;2022-07-24T04:14:03;99817.89;;;16.05;88.31
67373;BME280;54257;54.496;18.412;2022-07-24T04:16:30;99819.93;;;16.08;87.94
67373;BME280;54257;54.496;18.412;2022-07-24T04:18:57;99815.42;;;16.10;88.08
67373;BME280;54257;54.496;18.412;2022-07-24T04:21:24;99817.48;;;16.13;87.95
67373;BME280;54257;54.496;18.412;2022-07-24T04:23:51;99821.08;;;16.16;88.15
67373;BME280;54257;54.496;18.412;2022-07-24T04:26:19;99817.42;;;16.20;87.82
67373;BME280;54257;54.496;18.412;2022-07-24T04:28:46;99821.52;;;16.24;87.77
67373;BME280;54257;54.496;18.412;2022-07-24T04:31:13;99823.55;;;16.27;87.73
67373;BME280;54257;54.496;18.412;2022-07-24T04:33:43;99826.30;;;16.30;87.58
67373;BME280;54257;54.496;18.412;2022-07-24T04:36:11;99825.41;;;16.33;87.51
67373;BME280;54257;54.496;18.412;2022-07-24T04:38:38;99830.71;;;16.35;87.56
67373;BME280;54257;54.496;18.412;2022-07-24T04:41:05;99825.71;;;16.38;87.47
67373;BME280;54257;54.496;18.412;2022-07-24T04:43:32;99827.06;;;16.40;87.41
67373;BME280;54257;54.496;18.412;2022-07-24T04:45:59;99828.41;;;16.43;87.25
67373;BME280;54257;54.496;18.412;2022-07-24T04:48:26;99832.17;;;16.48;87.34
67373;BME280;54257;54.496;18.412;2022-07-24T04:50:54;99830.73;;;16.51;87.08
67373;BME280;54257;54.496;18.412;2022-07-24T04:53:21;99834.00;;;16.53;87.00
67373;BME280;54257;54.496;18.412;2022-07-24T04:55:48;99832.96;;;16.55;86.91
67373;BME280;54257;54.496;18.412;2022-07-24T04:58:16;99836.38;;;16.58;86.77
67373;BME280;54257;54.496;18.412;2022-07-24T05:00:43;99838.94;;;16.60;86.47
67373;BME280;54257;54.496;18.412;2022-07-24T05:03:10;99836.68;;;16.62;86.53
67373;BME280;54257;54.496;18.412;2022-07-24T05:05:37;99838.91;;;16.64;86.39
67373;BME280;54257;54.496;18.412;2022-07-24T05:08:04;99840.61;;;16.65;86.16
67373;BME280;54257;54.496;18.412;2022-07-24T05:10:31;99839.04;;;16.67;86.19
67373;BME280;54257;54.496;18.412;2022-07-24T05:12:59;99843.70;;;16.66;85.96
67373;BME280;54257;54.496;18.412;2022-07-24T05:15:26;99844.20;;;16.67;85.81
67373;BME280;54257;54.496;18.412;2022-07-24T05:17:53;99849.58;;;16.71;85.79
67373;BME280;54257;54.496;18.412;2022-07-24T05:20:20;99851.47;;;16.71;85.67
67373;BME280;54257;54.496;18.412;2022-07-24T05:22:47;99854.20;;;16.71;85.49
67373;BME280;54257;54.496;18.412;2022-07-24T05:25:14;99855.73;;;16.74;85.53
67373;BME280;54257;54.496;18.412;2022-07-24T05:27:41;99856.74;;;16.75;85.28
67373;BME280;54257;54.496;18.412;2022-07-24T05:30:10;99855.89;;;16.75;85.32
67373;BME280;54257;54.496;18.412;2022-07-24T05:32:37;99858.11;;;16.77;85.13
67373;BME280;54257;54.496;18.412;2022-07-24T05:35:05;99863.64;;;16.77;85.33
67373;BME280;54257;54.496;18.412;2022-07-24T05:37:32;99866.73;;;16.79;85.27
67373;BME280;54257;54.496;18.412;2022-07-24T05:39:59;99866.55;;;16.80;85.02
67373;BME280;54257;54.496;18.412;2022-07-24T05:42:26;99868.94;;;16.81;85.06
67373;BME280;54257;54.496;18.412;2022-07-24T05:44:53;99871.20;;;16.80;84.64
67373;BME280;54257;54.496;18.412;2022-07-24T05:47:20;99875.52;;;16.80;84.79
67373;BME280;54257;54.496;18.412;2022-07-24T05:49:47;99872.04;;;16.83;84.76
67373;BME280;54257;54.496;18.412;2022-07-24T05:52:14;99876.62;;;16.90;85.00
67373;BME280;54257;54.496;18.412;2022-07-24T05:54:41;99880.67;;;16.98;85.00
67373;BME280;54257;54.496;18.412;2022-07-24T05:57:09;99882.12;;;17.08;84.94
67373;BME280;54257;54.496;18.412;2022-07-24T05:59:36;99884.45;;;17.15;84.67
67373;BME280;54257;54.496;18.412;2022-07-24T06:02:02;99886.98;;;17.20;84.21
67373;BME280;54257;54.496;18.412;2022-07-24T06:04:30;99886.77;;;17.23;83.69
67373;BME280;54257;54.496;18.412;2022-07-24T06:06:58;99885.88;;;17.26;83.62
67373;BME280;54257;54.496;18.412;2022-07-24T06:09:28;99888.41;;;17.30;83.74
67373;BME280;54257;54.496;18.412;2022-07-24T06:11:55;99892.98;;;17.37;83.58
67373;BME280;54257;54.496;18.412;2022-07-24T06:14:25;99892.73;;;17.44;83.44
67373;BME280;54257;54.496;18.412;2022-07-24T06:16:54;99892.45;;;17.53;83.42
67373;BME280;54257;54.496;18.412;2022-07-24T06:19:21;99891.67;;;17.61;83.07
67373;BME280;54257;54.496;18.412;2022-07-24T06:21:48;99895.04;;;17.67;82.80
67373;BME280;54257;54.496;18.412;2022-07-24T06:24:15;99892.28;;;17.80;82.67
67373;BME280;54257;54.496;18.412;2022-07-24T06:26:42;99891.55;;;17.96;82.16
67373;BME280;54257;54.496;18.412;2022-07-24T06:29:09;99892.89;;;18.21;81.71
67373;BME280;54257;54.496;18.412;2022-07-24T06:31:37;99888.73;;;18.43;81.18
67373;BME280;54257;54.496;18.412;2022-07-24T06:34:04;99894.39;;;18.67;80.58
67373;BME280;54257;54.496;18.412;2022-07-24T06:36:31;99895.04;;;18.98;79.09
67373;BME280;54257;54.496;18.412;2022-07-24T06:38:58;99894.36;;;19.16;77.69
67373;BME280;54257;54.496;18.412;2022-07-24T06:41:25;99894.19;;;19.16;75.16
67373;BME280;54257;54.496;18.412;2022-07-24T06:43:53;99895.11;;;19.04;73.98
67373;BME280;54257;54.496;18.412;2022-07-24T06:46:20;99897.40;;;18.93;74.27
67373;BME280;54257;54.496;18.412;2022-07-24T06:48:48;99904.57;;;18.90;75.25
67373;BME280;54257;54.496;18.412;2022-07-24T06:51:15;99906.77;;;18.92;75.07
67373;BME280;54257;54.496;18.412;2022-07-24T06:53:44;99909.03;;;18.91;74.23
67373;BME280;54257;54.496;18.412;2022-07-24T06:56:13;99911.77;;;18.93;74.21
67373;BME280;54257;54.496;18.412;2022-07-24T06:58:40;99912.95;;;18.94;74.63
67373;BME280;54257;54.496;18.412;2022-07-24T07:01:07;99918.60;;;18.98;74.75
67373;BME280;54257;54.496;18.412;2022-07-24T07:03:35;99919.81;;;18.99;74.86
67373;BME280;54257;54.496;18.412;2022-07-24T07:06:02;99922.41;;;18.98;74.43
67373;BME280;54257;54.496;18.412;2022-07-24T07:08:29;99926.49;;;18.92;74.16
67373;BME280;54257;54.496;18.412;2022-07-24T07:10:56;99928.80;;;18.90;74.10
67373;BME280;54257;54.496;18.412;2022-07-24T07:13:23;99927.80;;;18.87;74.28
67373;BME280;54257;54.496;18.412;2022-07-24T07:15:50;99927.59;;;18.80;74.29
67373;BME280;54257;54.496;18.412;2022-07-24T07:18:17;99923.52;;;18.75;74.25
67373;BME280;54257;54.496;18.412;2022-07-24T07:20:44;99924.94;;;18.73;74.46
67373;BME280;54257;54.496;18.412;2022-07-24T07:23:12;99924.70;;;18.76;74.43
67373;BME280;54257;54.496;18.412;2022-07-24T07:25:39;99921.65;;;18.83;73.92
67373;BME280;54257;54.496;18.412;2022-07-24T07:28:06;99926.02;;;18.90;73.90
67373;BME280;54257;54.496;18.412;2022-07-24T07:30:33;99931.24;;;18.97;73.94
67373;BME280;54257;54.496;18.412;2022-07-24T07:33:00;99927.31;;;19.04;73.66
67373;BME280;54257;54.496;18.412;2022-07-24T07:35:27;99927.20;;;19.11;73.64
67373;BME280;54257;54.496;18.412;2022-07-24T07:37:54;99933.30;;;19.18;73.56
67373;BME280;54257;54.496;18.412;2022-07-24T07:40:21;99937.41;;;19.29;73.67
67373;BME280;54257;54.496;18.412;2022-07-24T07:42:48;99942.60;;;19.38;73.01
67373;BME280;54257;54.496;18.412;2022-07-24T07:45:16;99946.11;;;19.44;72.87
67373;BME280;54257;54.496;18.412;2022-07-24T07:47:44;99942.62;;;19.45;71.96
67373;BME280;54257;54.496;18.412;2022-07-24T07:50:14;99946.84;;;19.51;72.38
67373;BME280;54257;54.496;18.412;2022-07-24T07:52:41;99940.52;;;19.56;71.72
67373;BME280;54257;54.496;18.412;2022-07-24T07:55:11;99946.35;;;19.59;71.95
67373;BME280;54257;54.496;18.412;2022-07-24T07:57:39;99945.58;;;19.64;71.39
67373;BME280;54257;54.496;18.412;2022-07-24T08:00:09;99946.88;;;19.68;71.37
67373;BME280;54257;54.496;18.412;2022-07-24T08:02:36;99951.06;;;19.75;71.24
67373;BME280;54257;54.496;18.412;2022-07-24T08:05:04;99955.59;;;19.82;70.73
67373;BME280;54257;54.496;18.412;2022-07-24T08:07:32;99957.46;;;19.83;70.07
67373;BME280;54257;54.496;18.412;2022-07-24T08:09:59;99962.27;;;19.78;69.24
67373;BME280;54257;54.496;18.412;2022-07-24T08:12:27;99958.98;;;19.70;68.43
67373;BME280;54257;54.496;18.412;2022-07-24T08:14:54;99953.77;;;19.70;69.02
67373;BME280;54257;54.496;18.412;2022-07-24T08:17:21;99953.14;;;19.83;69.62
67373;BME280;54257;54.496;18.412;2022-07-24T08:19:48;99951.16;;;20.03;69.44
67373;BME280;54257;54.496;18.412;2022-07-24T08:22:15;99955.03;;;20.15;68.36
67373;BME280;54257;54.496;18.412;2022-07-24T08:24:43;99956.09;;;20.22;67.41
67373;BME280;54257;54.496;18.412;2022-07-24T08:27:10;99959.04;;;20.22;67.44
67373;BME280;54257;54.496;18.412;2022-07-24T08:29:37;99959.17;;;20.24;67.01
67373;BME280;54257;54.496;18.412;2022-07-24T08:32:04;99963.08;;;20.20;67.30
67373;BME280;54257;54.496;18.412;2022-07-24T08:34:31;99967.05;;;20.21;67.26
67373;BME280;54257;54.496;18.412;2022-07-24T08:36:58;99969.30;;;20.21;67.10
67373;BME280;54257;54.496;18.412;2022-07-24T08:39:25;99975.88;;;20.14;65.94
67373;BME280;54257;54.496;18.412;2022-07-24T08:41:54;99974.87;;;20.04;65.39
67373;BME280;54257;54.496;18.412;2022-07-24T08:44:23;99980.90;;;19.99;66.12
67373;BME280;54257;54.496;18.412;2022-07-24T08:46:53;99982.23;;;20.01;66.43
67373;BME280;54257;54.496;18.412;2022-07-24T08:49:22;99990.46;;;20.06;66.72
67373;BME280;54257;54.496;18.412;2022-07-24T08:51:51;99986.42;;;20.08;66.49
67373;BME280;54257;54.496;18.412;2022-07-24T08:54:18;99982.76;;;20.16;66.72
67373;BME280;54257;54.496;18.412;2022-07-24T08:56:46;99979.00;;;20.37;67.08
67373;BME280;54257;54.496;18.412;2022-07-24T08:59:21;99978.14;;;20.59;65.74
67373;BME280;54257;54.496;18.412;2022-07-24T09:01:49;99981.70;;;20.78;63.65
67373;BME280;54257;54.496;18.412;2022-07-24T09:07:08;99973.20;;;20.90;64.49
67373;BME280;54257;54.496;18.412;2022-07-24T09:09:38;99975.77;;;21.19;64.46
67373;BME280;54257;54.496;18.412;2022-07-24T09:12:16;99973.80;;;21.48;64.10
67373;BME280;54257;54.496;18.412;2022-07-24T09:14:46;99980.52;;;21.79;62.87
67373;BME280;54257;54.496;18.412;2022-07-24T09:17:19;99975.41;;;21.82;61.77
67373;BME280;54257;54.496;18.412;2022-07-24T09:19:54;99982.15;;;21.72;61.70
67373;BME280;54257;54.496;18.412;2022-07-24T09:25:23;99991.98;;;21.31;62.92
67373;BME280;54257;54.496;18.412;2022-07-24T09:27:51;100003.14;;;21.22;62.83
67373;BME280;54257;54.496;18.412;2022-07-24T09:30:31;100003.09;;;21.11;63.18
67373;BME280;54257;54.496;18.412;2022-07-24T09:33:02;100014.42;;;21.09;63.71
67373;BME280;54257;54.496;18.412;2022-07-24T09:35:32;100012.84;;;21.23;64.19
67373;BME280;54257;54.496;18.412;2022-07-24T09:38:01;100013.88;;;21.57;63.81
67373;BME280;54257;54.496;18.412;2022-07-24T09:40:35;100008.17;;;21.86;62.47
67373;BME280;54257;54.496;18.412;2022-07-24T09:43:31;100007.67;;;22.03;62.07
67373;BME280;54257;54.496;18.412;2022-07-24T09:46:11;100010.25;;;22.11;61.69
67373;BME280;54257;54.496;18.412;2022-07-24T09:48:51;100016.23;;;22.02;60.64
67373;BME280;54257;54.496;18.412;2022-07-24T09:51:24;100020.89;;;21.92;61.13
67373;BME280;54257;54.496;18.412;2022-07-24T09:53:54;100022.67;;;21.84;60.85
67373;BME280;54257;54.496;18.412;2022-07-24T09:56:23;100027.28;;;21.75;60.84
67373;BME280;54257;54.496;18.412;2022-07-24T09:58:52;100024.36;;;21.61;60.28
67373;BME280;54257;54.496;18.412;2022-07-24T10:01:22;100030.73;;;21.51;60.98
67373;BME280;54257;54.496;18.412;2022-07-24T10:03:51;100033.86;;;21.45;61.05
67373;BME280;54257;54.496;18.412;2022-07-24T10:06:20;100033.14;;;21.32;61.29
67373;BME280;54257;54.496;18.412;2022-07-24T10:08:50;100042.66;;;21.26;61.66
67373;BME280;54257;54.496;18.412;2022-07-24T10:11:18;100046.48;;;21.19;61.81
67373;BME280;54257;54.496;18.412;2022-07-24T10:13:46;100046.32;;;21.26;62.26
67373;BME280;54257;54.496;18.412;2022-07-24T10:18:53;100049.86;;;21.57;61.92
67373;BME280;54257;54.496;18.412;2022-07-24T10:21:22;100048.52;;;21.62;61.29
67373;BME280;54257;54.496;18.412;2022-07-24T10:26:43;100049.44;;;21.66;60.84
67373;BME280;54257;54.496;18.412;2022-07-24T10:29:19;100053.64;;;21.65;60.72
67373;BME280;54257;54.496;18.412;2022-07-24T10:31:51;100059.60;;;21.63;60.13
67373;BME280;54257;54.496;18.412;2022-07-24T10:39:28;100060.17;;;21.55;60.49
67373;BME280;54257;54.496;18.412;2022-07-24T10:42:02;100062.09;;;21.48;60.56
67373;BME280;54257;54.496;18.412;2022-07-24T10:44:29;100066.92;;;21.43;60.53
67373;BME280;54257;54.496;18.412;2022-07-24T10:47:02;100062.20;;;21.44;60.61
67373;BME280;54257;54.496;18.412;2022-07-24T10:52:00;100066.23;;;21.42;60.32
67373;BME280;54257;54.496;18.412;2022-07-24T10:54:28;100060.13;;;21.43;60.60
67373;BME280;54257;54.496;18.412;2022-07-24T10:56:55;100058.20;;;21.69;60.96
67373;BME280;54257;54.496;18.412;2022-07-24T10:59:36;100059.88;;;22.03;60.38
67373;BME280;54257;54.496;18.412;2022-07-24T11:02:27;100057.06;;;22.29;59.78
67373;BME280;54257;54.496;18.412;2022-07-24T11:08:13;100061.04;;;22.18;58.14
67373;BME280;54257;54.496;18.412;2022-07-24T11:16:19;100079.28;;;22.07;58.10
67373;BME280;54257;54.496;18.412;2022-07-24T11:21:41;100079.33;;;21.86;58.11
67373;BME280;54257;54.496;18.412;2022-07-24T11:24:16;100083.58;;;21.77;58.20
67373;BME280;54257;54.496;18.412;2022-07-24T11:26:50;100089.05;;;21.73;58.36
67373;BME280;54257;54.496;18.412;2022-07-24T11:31:50;100093.39;;;21.87;59.08
67373;BME280;54257;54.496;18.412;2022-07-24T11:34:18;100100.09;;;21.83;58.80
67373;BME280;54257;54.496;18.412;2022-07-24T11:36:47;100102.89;;;21.70;58.28
67373;BME280;54257;54.496;18.412;2022-07-24T11:39:15;100101.44;;;21.59;58.96
67373;BME280;54257;54.496;18.412;2022-07-24T11:41:52;100105.34;;;21.56;59.11
67373;BME280;54257;54.496;18.412;2022-07-24T11:44:28;100105.27;;;21.52;59.14
67373;BME280;54257;54.496;18.412;2022-07-24T11:46:58;100103.24;;;21.50;59.25
67373;BME280;54257;54.496;18.412;2022-07-24T11:49:26;100102.45;;;21.47;59.29
67373;BME280;54257;54.496;18.412;2022-07-24T11:51:54;100099.02;;;21.45;59.32
67373;BME280;54257;54.496;18.412;2022-07-24T11:54:27;100100.50;;;21.42;59.08
67373;BME280;54257;54.496;18.412;2022-07-24T11:56:55;100099.39;;;21.45;59.31
67373;BME280;54257;54.496;18.412;2022-07-24T11:59:29;100094.40;;;21.49;59.67
67373;BME280;54257;54.496;18.412;2022-07-24T12:02:08;100094.38;;;21.63;59.70
67373;BME280;54257;54.496;18.412;2022-07-24T12:04:40;100098.83;;;21.79;58.99
67373;BME280;54257;54.496;18.412;2022-07-24T12:07:13;100097.52;;;21.81;58.34
67373;BME280;54257;54.496;18.412;2022-07-24T12:12:29;100097.89;;;21.94;57.70
67373;BME280;54257;54.496;18.412;2022-07-24T12:15:10;100100.04;;;22.11;57.77
67373;BME280;54257;54.496;18.412;2022-07-24T12:20:34;100106.27;;;22.30;57.27
67373;BME280;54257;54.496;18.412;2022-07-24T12:23:05;100105.19;;;22.20;57.58
67373;BME280;54257;54.496;18.412;2022-07-24T12:25:33;100109.23;;;22.12;57.51
67373;BME280;54257;54.496;18.412;2022-07-24T12:28:08;100112.16;;;22.06;57.43
67373;BME280;54257;54.496;18.412;2022-07-24T12:30:41;100111.78;;;22.01;57.30
67373;BME280;54257;54.496;18.412;2022-07-24T12:33:20;100108.04;;;22.04;57.74
67373;BME280;54257;54.496;18.412;2022-07-24T12:38:32;100107.84;;;22.18;56.90
67373;BME280;54257;54.496;18.412;2022-07-24T12:41:11;100105.02;;;22.19;56.48
67373;BME280;54257;54.496;18.412;2022-07-24T12:43:46;100107.00;;;22.18;56.64
67373;BME280;54257;54.496;18.412;2022-07-24T12:46:17;100110.99;;;22.12;57.08
67373;BME280;54257;54.496;18.412;2022-07-24T12:51:51;100108.98;;;22.09;57.54
67373;BME280;54257;54.496;18.412;2022-07-24T12:54:23;100109.27;;;22.17;57.57
67373;BME280;54257;54.496;18.412;2022-07-24T12:56:56;100109.95;;;22.24;57.36
67373;BME280;54257;54.496;18.412;2022-07-24T12:59:28;100109.29;;;22.28;56.88
67373;BME280;54257;54.496;18.412;2022-07-24T13:02:23;100109.63;;;22.17;56.43
67373;BME280;54257;54.496;18.412;2022-07-24T13:04:55;100111.02;;;21.97;56.41
67373;BME280;54257;54.496;18.412;2022-07-24T13:07:26;100109.43;;;21.79;57.07
67373;BME280;54257;54.496;18.412;2022-07-24T13:09:53;100112.74;;;21.66;56.88
67373;BME280;54257;54.496;18.412;2022-07-24T13:12:20;100115.62;;;21.55;57.42
67373;BME280;54257;54.496;18.412;2022-07-24T13:14:48;100119.69;;;21.46;57.88
67373;BME280;54257;54.496;18.412;2022-07-24T13:17:16;100123.73;;;21.37;58.18
67373;BME280;54257;54.496;18.412;2022-07-24T13:19:48;100124.35;;;21.26;58.54
67373;BME280;54257;54.496;18.412;2022-07-24T13:22:16;100116.34;;;21.19;58.82
67373;BME280;54257;54.496;18.412;2022-07-24T13:24:43;100119.69;;;21.16;59.03
67373;BME280;54257;54.496;18.412;2022-07-24T13:27:13;100116.23;;;21.15;59.39
67373;BME280;54257;54.496;18.412;2022-07-24T13:29:41;100117.18;;;21.13;59.16
67373;BME280;54257;54.496;18.412;2022-07-24T13:32:09;100115.23;;;21.07;59.32
67373;BME280;54257;54.496;18.412;2022-07-24T13:34:40;100120.91;;;21.09;59.62
67373;BME280;54257;54.496;18.412;2022-07-24T13:37:10;100120.54;;;21.11;59.83
67373;BME280;54257;54.496;18.412;2022-07-24T13:39:37;100124.27;;;21.14;59.93
67373;BME280;54257;54.496;18.412;2022-07-24T13:42:08;100126.12;;;21.16;59.84